This is the latest recevied weather packets stored in our database for station/object PY1LEO-13. If no packets are shown the sender has not sent any weather packets the latest 10 day(s).
| Time | Temp. | Humidity | Pressure | Rain* | Wind** | Luminosity | Snow |
|---|---|---|---|---|---|---|---|
| 1778106168 | 27.78° C | 64% | 1019.2 hPa | - | - | - | - |
| 1778105868 | 27.78° C | 65% | 1019.2 hPa | - | - | - | - |
| 1778105568 | 27.78° C | 65% | 1019.2 hPa | - | - | - | - |
| 1778105268 | 28.33° C | 65% | 1019.2 hPa | - | - | - | - |
| 1778104968 | 28.33° C | 66% | 1019 hPa | - | - | - | - |
| 1778104668 | 27.22° C | 67% | 1019.1 hPa | - | - | - | - |
| 1778104368 | 27.78° C | 68% | 1019.1 hPa | - | - | - | - |
| 1778104068 | 27.22° C | 70% | 1018.9 hPa | - | - | - | - |
| 1778103768 | 27.78° C | 67% | 1018.8 hPa | - | - | - | - |
| 1778103468 | 28.33° C | 65% | 1018.7 hPa | - | - | - | - |
| 1778103169 | 28.33° C | 64% | 1018.6 hPa | - | - | - | - |
| 1778102868 | 27.78° C | 66% | 1018.5 hPa | - | - | - | - |
| 1778102568 | 27.78° C | 66% | 1018.4 hPa | - | - | - | - |
| 1778102268 | 27.78° C | 66% | 1018.4 hPa | - | - | - | - |
| 1778101968 | 27.22° C | 68% | 1018.4 hPa | - | - | - | - |
| 1778101668 | 27.22° C | 68% | 1018.3 hPa | - | - | - | - |
| 1778101368 | 28.33° C | 64% | 1018.3 hPa | - | - | - | - |
| 1778101068 | 27.78° C | 66% | 1018.2 hPa | - | - | - | - |
| 1778100768 | 27.78° C | 66% | 1018.2 hPa | - | - | - | - |
| 1778100468 | 27.78° C | 66% | 1018.1 hPa | - | - | - | - |
| 1778100168 | 28.89° C | 62% | 1018.1 hPa | - | - | - | - |
| 1778099868 | 28.33° C | 64% | 1018.1 hPa | - | - | - | - |
| 1778099568 | 28.33° C | 63% | 1018.1 hPa | - | - | - | - |
| 1778099268 | 28.89° C | 62% | 1018.1 hPa | - | - | - | - |
| 1778098968 | 28.89° C | 63% | 1018.1 hPa | - | - | - | - |
* Rain since midnight (hover to see other rain measurements)
** Current wind speed in m/s (hover to see current wind gust speed)